sensor_id;sensor_type;location;lat;lon;timestamp;P1;durP1;ratioP1;P2;durP2;ratioP2
52386;SDS011;38317;53.084;6.960;2023-08-08T00:01:06;2.83;;;1.50;;
52386;SDS011;38317;53.084;6.960;2023-08-08T00:03:32;4.13;;;1.50;;
52386;SDS011;38317;53.084;6.960;2023-08-08T00:05:57;2.70;;;1.50;;
52386;SDS011;38317;53.084;6.960;2023-08-08T00:08:23;5.95;;;2.03;;
52386;SDS011;38317;53.084;6.960;2023-08-08T00:10:49;6.25;;;1.63;;
52386;SDS011;38317;53.084;6.960;2023-08-08T00:13:15;4.70;;;1.75;;
52386;SDS011;38317;53.084;6.960;2023-08-08T00:15:40;5.28;;;1.65;;
52386;SDS011;38317;53.084;6.960;2023-08-08T00:18:06;3.15;;;1.58;;
52386;SDS011;38317;53.084;6.960;2023-08-08T00:20:32;3.75;;;1.60;;
52386;SDS011;38317;53.084;6.960;2023-08-08T00:22:58;4.18;;;1.60;;
52386;SDS011;38317;53.084;6.960;2023-08-08T00:25:23;3.63;;;1.60;;
52386;SDS011;38317;53.084;6.960;2023-08-08T00:27:49;5.03;;;1.80;;
52386;SDS011;38317;53.084;6.960;2023-08-08T00:30:15;3.83;;;1.80;;
52386;SDS011;38317;53.084;6.960;2023-08-08T00:32:41;2.75;;;1.58;;
52386;SDS011;38317;53.084;6.960;2023-08-08T00:35:07;2.90;;;1.40;;
52386;SDS011;38317;53.084;6.960;2023-08-08T00:37:33;3.55;;;1.70;;
52386;SDS011;38317;53.084;6.960;2023-08-08T00:39:59;4.00;;;1.63;;
52386;SDS011;38317;53.084;6.960;2023-08-08T00:42:24;3.42;;;1.50;;
52386;SDS011;38317;53.084;6.960;2023-08-08T00:44:50;2.78;;;1.58;;
52386;SDS011;38317;53.084;6.960;2023-08-08T00:47:18;3.63;;;1.48;;
52386;SDS011;38317;53.084;6.960;2023-08-08T00:49:44;4.07;;;1.50;;
52386;SDS011;38317;53.084;6.960;2023-08-08T00:52:13;3.30;;;1.58;;
52386;SDS011;38317;53.084;6.960;2023-08-08T00:54:40;2.97;;;1.65;;
52386;SDS011;38317;53.084;6.960;2023-08-08T00:57:05;5.32;;;1.75;;
52386;SDS011;38317;53.084;6.960;2023-08-08T00:59:31;4.57;;;1.75;;
52386;SDS011;38317;53.084;6.960;2023-08-08T01:01:58;4.20;;;1.67;;
52386;SDS011;38317;53.084;6.960;2023-08-08T01:04:24;3.85;;;1.80;;
52386;SDS011;38317;53.084;6.960;2023-08-08T01:07:06;3.00;;;1.80;;
52386;SDS011;38317;53.084;6.960;2023-08-08T01:12:21;4.55;;;1.65;;
52386;SDS011;38317;53.084;6.960;2023-08-08T01:14:49;4.97;;;1.70;;
52386;SDS011;38317;53.084;6.960;2023-08-08T01:17:16;3.25;;;1.88;;
52386;SDS011;38317;53.084;6.960;2023-08-08T01:19:43;4.22;;;1.67;;
52386;SDS011;38317;53.084;6.960;2023-08-08T01:22:14;5.15;;;1.52;;
52386;SDS011;38317;53.084;6.960;2023-08-08T01:24:49;5.47;;;1.88;;
52386;SDS011;38317;53.084;6.960;2023-08-08T01:27:15;4.40;;;1.70;;
52386;SDS011;38317;53.084;6.960;2023-08-08T01:29:41;5.35;;;2.03;;
52386;SDS011;38317;53.084;6.960;2023-08-08T01:32:07;5.07;;;1.95;;
52386;SDS011;38317;53.084;6.960;2023-08-08T01:34:34;3.90;;;1.90;;
52386;SDS011;38317;53.084;6.960;2023-08-08T01:37:18;3.08;;;1.77;;
52386;SDS011;38317;53.084;6.960;2023-08-08T01:39:47;5.25;;;1.90;;
52386;SDS011;38317;53.084;6.960;2023-08-08T01:42:15;3.78;;;1.80;;
52386;SDS011;38317;53.084;6.960;2023-08-08T01:44:44;5.13;;;2.00;;
52386;SDS011;38317;53.084;6.960;2023-08-08T01:47:10;5.93;;;1.88;;
52386;SDS011;38317;53.084;6.960;2023-08-08T01:49:36;5.75;;;2.08;;
52386;SDS011;38317;53.084;6.960;2023-08-08T01:52:02;4.28;;;2.17;;
52386;SDS011;38317;53.084;6.960;2023-08-08T01:54:28;5.10;;;2.00;;
52386;SDS011;38317;53.084;6.960;2023-08-08T01:56:54;8.02;;;2.17;;
52386;SDS011;38317;53.084;6.960;2023-08-08T01:59:20;5.63;;;2.15;;
52386;SDS011;38317;53.084;6.960;2023-08-08T02:01:45;5.35;;;2.00;;
52386;SDS011;38317;53.084;6.960;2023-08-08T02:04:11;5.88;;;2.30;;
52386;SDS011;38317;53.084;6.960;2023-08-08T02:06:37;5.65;;;2.17;;
52386;SDS011;38317;53.084;6.960;2023-08-08T02:09:02;3.40;;;1.73;;
52386;SDS011;38317;53.084;6.960;2023-08-08T02:11:28;5.82;;;2.38;;
52386;SDS011;38317;53.084;6.960;2023-08-08T02:13:54;4.03;;;2.10;;
52386;SDS011;38317;53.084;6.960;2023-08-08T02:16:19;5.10;;;2.35;;
52386;SDS011;38317;53.084;6.960;2023-08-08T02:18:45;6.22;;;2.10;;
52386;SDS011;38317;53.084;6.960;2023-08-08T02:21:11;4.00;;;1.95;;
52386;SDS011;38317;53.084;6.960;2023-08-08T02:23:36;4.88;;;2.10;;
52386;SDS011;38317;53.084;6.960;2023-08-08T02:26:02;5.47;;;2.38;;
52386;SDS011;38317;53.084;6.960;2023-08-08T02:28:29;6.00;;;2.35;;
52386;SDS011;38317;53.084;6.960;2023-08-08T02:30:54;4.70;;;2.20;;
52386;SDS011;38317;53.084;6.960;2023-08-08T02:33:20;4.47;;;2.25;;
52386;SDS011;38317;53.084;6.960;2023-08-08T02:35:46;4.93;;;1.98;;
52386;SDS011;38317;53.084;6.960;2023-08-08T02:38:12;5.60;;;2.20;;
52386;SDS011;38317;53.084;6.960;2023-08-08T02:40:37;5.60;;;2.03;;
52386;SDS011;38317;53.084;6.960;2023-08-08T02:43:04;4.50;;;2.25;;
52386;SDS011;38317;53.084;6.960;2023-08-08T02:45:29;5.60;;;2.30;;
52386;SDS011;38317;53.084;6.960;2023-08-08T02:47:55;3.83;;;2.33;;
52386;SDS011;38317;53.084;6.960;2023-08-08T02:50:21;6.15;;;2.10;;
52386;SDS011;38317;53.084;6.960;2023-08-08T02:52:47;8.63;;;2.28;;
52386;SDS011;38317;53.084;6.960;2023-08-08T02:55:12;6.15;;;2.05;;
52386;SDS011;38317;53.084;6.960;2023-08-08T02:57:39;4.15;;;1.80;;
52386;SDS011;38317;53.084;6.960;2023-08-08T03:00:05;5.13;;;2.45;;
52386;SDS011;38317;53.084;6.960;2023-08-08T03:02:33;5.63;;;1.90;;
52386;SDS011;38317;53.084;6.960;2023-08-08T03:04:59;4.97;;;2.10;;
52386;SDS011;38317;53.084;6.960;2023-08-08T03:07:25;4.28;;;2.20;;
52386;SDS011;38317;53.084;6.960;2023-08-08T03:09:50;9.00;;;2.92;;
52386;SDS011;38317;53.084;6.960;2023-08-08T03:12:16;5.05;;;2.33;;
52386;SDS011;38317;53.084;6.960;2023-08-08T03:14:42;6.85;;;2.40;;
52386;SDS011;38317;53.084;6.960;2023-08-08T03:17:07;5.25;;;2.42;;
52386;SDS011;38317;53.084;6.960;2023-08-08T03:19:33;5.57;;;2.38;;
52386;SDS011;38317;53.084;6.960;2023-08-08T03:21:59;7.05;;;2.40;;
52386;SDS011;38317;53.084;6.960;2023-08-08T03:24:24;4.70;;;2.15;;
52386;SDS011;38317;53.084;6.960;2023-08-08T03:26:50;6.00;;;2.25;;
52386;SDS011;38317;53.084;6.960;2023-08-08T03:29:16;4.68;;;2.13;;
52386;SDS011;38317;53.084;6.960;2023-08-08T03:31:42;5.65;;;2.00;;
52386;SDS011;38317;53.084;6.960;2023-08-08T03:34:07;6.85;;;1.95;;
52386;SDS011;38317;53.084;6.960;2023-08-08T03:36:33;8.02;;;2.10;;
52386;SDS011;38317;53.084;6.960;2023-08-08T03:38:59;7.07;;;2.38;;
52386;SDS011;38317;53.084;6.960;2023-08-08T03:41:24;3.92;;;1.92;;
52386;SDS011;38317;53.084;6.960;2023-08-08T03:43:50;6.40;;;1.92;;
52386;SDS011;38317;53.084;6.960;2023-08-08T03:46:16;3.63;;;1.90;;
52386;SDS011;38317;53.084;6.960;2023-08-08T03:48:42;6.20;;;2.10;;
52386;SDS011;38317;53.084;6.960;2023-08-08T03:51:07;6.10;;;2.10;;
52386;SDS011;38317;53.084;6.960;2023-08-08T03:53:33;4.47;;;1.92;;
52386;SDS011;38317;53.084;6.960;2023-08-08T03:55:59;7.00;;;2.25;;
52386;SDS011;38317;53.084;6.960;2023-08-08T03:58:25;5.78;;;2.17;;
52386;SDS011;38317;53.084;6.960;2023-08-08T04:00:50;5.10;;;2.13;;
52386;SDS011;38317;53.084;6.960;2023-08-08T04:03:16;3.67;;;1.90;;
52386;SDS011;38317;53.084;6.960;2023-08-08T04:05:46;5.03;;;1.90;;
52386;SDS011;38317;53.084;6.960;2023-08-08T04:08:13;7.38;;;2.03;;
52386;SDS011;38317;53.084;6.960;2023-08-08T04:10:39;4.65;;;1.98;;
52386;SDS011;38317;53.084;6.960;2023-08-08T04:13:05;5.43;;;1.77;;
52386;SDS011;38317;53.084;6.960;2023-08-08T04:15:31;4.38;;;1.38;;
52386;SDS011;38317;53.084;6.960;2023-08-08T04:17:56;3.88;;;1.73;;
52386;SDS011;38317;53.084;6.960;2023-08-08T04:20:22;7.68;;;1.58;;
52386;SDS011;38317;53.084;6.960;2023-08-08T04:22:48;7.72;;;1.63;;
52386;SDS011;38317;53.084;6.960;2023-08-08T04:25:14;4.05;;;1.63;;
52386;SDS011;38317;53.084;6.960;2023-08-08T04:27:40;5.80;;;1.60;;
52386;SDS011;38317;53.084;6.960;2023-08-08T04:30:06;3.10;;;1.55;;
52386;SDS011;38317;53.084;6.960;2023-08-08T04:32:32;4.43;;;1.40;;
52386;SDS011;38317;53.084;6.960;2023-08-08T04:34:58;5.10;;;1.50;;
52386;SDS011;38317;53.084;6.960;2023-08-08T04:37:24;6.20;;;1.60;;
52386;SDS011;38317;53.084;6.960;2023-08-08T04:39:50;4.53;;;1.50;;
52386;SDS011;38317;53.084;6.960;2023-08-08T04:42:16;5.50;;;1.70;;
52386;SDS011;38317;53.084;6.960;2023-08-08T04:44:41;4.80;;;1.67;;
52386;SDS011;38317;53.084;6.960;2023-08-08T04:47:07;6.63;;;1.63;;
52386;SDS011;38317;53.084;6.960;2023-08-08T04:49:33;6.82;;;1.67;;
52386;SDS011;38317;53.084;6.960;2023-08-08T04:51:59;7.28;;;2.15;;
52386;SDS011;38317;53.084;6.960;2023-08-08T04:54:24;5.50;;;1.83;;
52386;SDS011;38317;53.084;6.960;2023-08-08T04:56:50;4.80;;;1.80;;
52386;SDS011;38317;53.084;6.960;2023-08-08T04:59:16;5.43;;;1.75;;
52386;SDS011;38317;53.084;6.960;2023-08-08T05:01:41;6.57;;;1.83;;
52386;SDS011;38317;53.084;6.960;2023-08-08T05:04:08;7.15;;;1.67;;
52386;SDS011;38317;53.084;6.960;2023-08-08T05:06:34;6.30;;;1.90;;
52386;SDS011;38317;53.084;6.960;2023-08-08T05:08:59;5.40;;;1.63;;
52386;SDS011;38317;53.084;6.960;2023-08-08T05:11:25;7.57;;;1.58;;
52386;SDS011;38317;53.084;6.960;2023-08-08T05:13:51;10.30;;;1.60;;
52386;SDS011;38317;53.084;6.960;2023-08-08T05:16:17;8.70;;;1.65;;
52386;SDS011;38317;53.084;6.960;2023-08-08T05:18:43;4.68;;;1.55;;
52386;SDS011;38317;53.084;6.960;2023-08-08T05:21:11;5.32;;;1.40;;
52386;SDS011;38317;53.084;6.960;2023-08-08T05:23:37;5.45;;;1.70;;
52386;SDS011;38317;53.084;6.960;2023-08-08T05:26:03;3.92;;;1.40;;
52386;SDS011;38317;53.084;6.960;2023-08-08T05:28:29;4.40;;;1.20;;
52386;SDS011;38317;53.084;6.960;2023-08-08T05:30:55;4.22;;;1.27;;
52386;SDS011;38317;53.084;6.960;2023-08-08T05:33:21;7.38;;;1.50;;
52386;SDS011;38317;53.084;6.960;2023-08-08T05:35:47;6.07;;;1.50;;
52386;SDS011;38317;53.084;6.960;2023-08-08T05:38:13;5.00;;;1.70;;
52386;SDS011;38317;53.084;6.960;2023-08-08T05:40:39;4.70;;;1.30;;
52386;SDS011;38317;53.084;6.960;2023-08-08T05:43:05;6.88;;;1.23;;
52386;SDS011;38317;53.084;6.960;2023-08-08T05:45:30;5.43;;;1.10;;
52386;SDS011;38317;53.084;6.960;2023-08-08T05:47:57;6.28;;;1.40;;
52386;SDS011;38317;53.084;6.960;2023-08-08T05:50:24;3.92;;;1.00;;
52386;SDS011;38317;53.084;6.960;2023-08-08T05:52:50;5.85;;;1.30;;
52386;SDS011;38317;53.084;6.960;2023-08-08T05:55:16;8.27;;;1.08;;
52386;SDS011;38317;53.084;6.960;2023-08-08T05:57:41;7.10;;;1.08;;
52386;SDS011;38317;53.084;6.960;2023-08-08T06:00:07;6.88;;;1.25;;
52386;SDS011;38317;53.084;6.960;2023-08-08T06:02:36;5.47;;;1.10;;
52386;SDS011;38317;53.084;6.960;2023-08-08T06:05:03;3.97;;;0.90;;
52386;SDS011;38317;53.084;6.960;2023-08-08T06:07:29;5.78;;;1.10;;
52386;SDS011;38317;53.084;6.960;2023-08-08T06:09:55;4.65;;;1.10;;
52386;SDS011;38317;53.084;6.960;2023-08-08T06:12:21;5.30;;;1.00;;
52386;SDS011;38317;53.084;6.960;2023-08-08T06:14:47;6.18;;;0.93;;
52386;SDS011;38317;53.084;6.960;2023-08-08T06:17:13;6.80;;;1.50;;
52386;SDS011;38317;53.084;6.960;2023-08-08T06:19:39;4.78;;;0.93;;
52386;SDS011;38317;53.084;6.960;2023-08-08T06:22:05;5.88;;;1.02;;
52386;SDS011;38317;53.084;6.960;2023-08-08T06:24:31;5.20;;;1.05;;
52386;SDS011;38317;53.084;6.960;2023-08-08T06:26:57;5.38;;;1.23;;
52386;SDS011;38317;53.084;6.960;2023-08-08T06:29:22;2.13;;;0.70;;
52386;SDS011;38317;53.084;6.960;2023-08-08T06:31:48;4.22;;;0.88;;
52386;SDS011;38317;53.084;6.960;2023-08-08T06:34:14;7.63;;;1.13;;
52386;SDS011;38317;53.084;6.960;2023-08-08T06:36:40;4.53;;;1.10;;
52386;SDS011;38317;53.084;6.960;2023-08-08T06:39:06;4.40;;;0.80;;
52386;SDS011;38317;53.084;6.960;2023-08-08T06:41:32;7.57;;;1.05;;
52386;SDS011;38317;53.084;6.960;2023-08-08T06:43:57;7.75;;;1.15;;
52386;SDS011;38317;53.084;6.960;2023-08-08T06:46:23;5.68;;;1.88;;
52386;SDS011;38317;53.084;6.960;2023-08-08T06:48:50;4.57;;;1.10;;
52386;SDS011;38317;53.084;6.960;2023-08-08T06:51:18;6.10;;;1.10;;
52386;SDS011;38317;53.084;6.960;2023-08-08T06:53:43;4.15;;;0.90;;
52386;SDS011;38317;53.084;6.960;2023-08-08T06:56:09;5.72;;;0.98;;
52386;SDS011;38317;53.084;6.960;2023-08-08T06:58:35;5.43;;;0.95;;
52386;SDS011;38317;53.084;6.960;2023-08-08T07:01:01;6.45;;;1.20;;
52386;SDS011;38317;53.084;6.960;2023-08-08T07:03:27;9.88;;;1.40;;
52386;SDS011;38317;53.084;6.960;2023-08-08T07:05:53;7.07;;;1.00;;
52386;SDS011;38317;53.084;6.960;2023-08-08T07:08:19;6.18;;;1.10;;
52386;SDS011;38317;53.084;6.960;2023-08-08T07:10:45;5.18;;;0.90;;
52386;SDS011;38317;53.084;6.960;2023-08-08T07:13:11;5.78;;;1.15;;
52386;SDS011;38317;53.084;6.960;2023-08-08T07:15:36;5.47;;;1.17;;
52386;SDS011;38317;53.084;6.960;2023-08-08T07:18:03;4.28;;;0.85;;
52386;SDS011;38317;53.084;6.960;2023-08-08T07:20:29;3.22;;;0.80;;
52386;SDS011;38317;53.084;6.960;2023-08-08T07:22:55;4.85;;;0.70;;
52386;SDS011;38317;53.084;6.960;2023-08-08T07:25:21;6.25;;;0.80;;
52386;SDS011;38317;53.084;6.960;2023-08-08T07:27:46;5.50;;;0.80;;
52386;SDS011;38317;53.084;6.960;2023-08-08T07:30:12;3.95;;;0.60;;
52386;SDS011;38317;53.084;6.960;2023-08-08T07:32:38;4.75;;;0.90;;
52386;SDS011;38317;53.084;6.960;2023-08-08T07:35:04;4.25;;;0.75;;
52386;SDS011;38317;53.084;6.960;2023-08-08T07:37:31;5.22;;;0.70;;
52386;SDS011;38317;53.084;6.960;2023-08-08T07:39:58;1.77;;;0.60;;
52386;SDS011;38317;53.084;6.960;2023-08-08T07:42:24;2.85;;;0.90;;
52386;SDS011;38317;53.084;6.960;2023-08-08T07:44:49;2.45;;;0.50;;
52386;SDS011;38317;53.084;6.960;2023-08-08T07:47:15;1.42;;;0.40;;
52386;SDS011;38317;53.084;6.960;2023-08-08T07:49:41;3.65;;;0.50;;
52386;SDS011;38317;53.084;6.960;2023-08-08T07:52:06;3.92;;;0.52;;
52386;SDS011;38317;53.084;6.960;2023-08-08T07:54:33;2.42;;;0.50;;
52386;SDS011;38317;53.084;6.960;2023-08-08T07:56:59;5.50;;;1.23;;
52386;SDS011;38317;53.084;6.960;2023-08-08T07:59:27;3.38;;;0.40;;
52386;SDS011;38317;53.084;6.960;2023-08-08T08:01:53;3.90;;;0.70;;
52386;SDS011;38317;53.084;6.960;2023-08-08T08:04:18;3.13;;;0.47;;
52386;SDS011;38317;53.084;6.960;2023-08-08T08:06:44;1.95;;;0.50;;
52386;SDS011;38317;53.084;6.960;2023-08-08T08:09:10;5.25;;;0.50;;
52386;SDS011;38317;53.084;6.960;2023-08-08T08:11:36;3.47;;;0.60;;
52386;SDS011;38317;53.084;6.960;2023-08-08T08:14:01;3.42;;;0.40;;
52386;SDS011;38317;53.084;6.960;2023-08-08T08:16:27;3.72;;;0.70;;
52386;SDS011;38317;53.084;6.960;2023-08-08T08:18:53;2.70;;;0.50;;
52386;SDS011;38317;53.084;6.960;2023-08-08T08:21:19;3.42;;;0.70;;
52386;SDS011;38317;53.084;6.960;2023-08-08T08:23:45;3.25;;;0.50;;
52386;SDS011;38317;53.084;6.960;2023-08-08T08:26:11;4.38;;;0.85;;
52386;SDS011;38317;53.084;6.960;2023-08-08T08:28:37;3.67;;;0.50;;
52386;SDS011;38317;53.084;6.960;2023-08-08T08:31:05;4.72;;;0.55;;
52386;SDS011;38317;53.084;6.960;2023-08-08T08:33:31;3.65;;;0.60;;
52386;SDS011;38317;53.084;6.960;2023-08-08T08:35:57;4.82;;;0.50;;
52386;SDS011;38317;53.084;6.960;2023-08-08T08:38:23;5.97;;;0.50;;
52386;SDS011;38317;53.084;6.960;2023-08-08T08:40:48;3.05;;;0.50;;
52386;SDS011;38317;53.084;6.960;2023-08-08T08:43:15;2.33;;;0.40;;
52386;SDS011;38317;53.084;6.960;2023-08-08T08:45:42;4.55;;;0.80;;
52386;SDS011;38317;53.084;6.960;2023-08-08T08:48:11;6.75;;;0.88;;
52386;SDS011;38317;53.084;6.960;2023-08-08T08:50:40;5.32;;;0.47;;
52386;SDS011;38317;53.084;6.960;2023-08-08T08:53:08;6.30;;;0.82;;
52386;SDS011;38317;53.084;6.960;2023-08-08T08:55:36;6.18;;;0.50;;
52386;SDS011;38317;53.084;6.960;2023-08-08T08:58:02;2.88;;;0.50;;
52386;SDS011;38317;53.084;6.960;2023-08-08T09:00:29;5.03;;;0.52;;
52386;SDS011;38317;53.084;6.960;2023-08-08T09:02:56;3.70;;;0.57;;
52386;SDS011;38317;53.084;6.960;2023-08-08T09:05:22;2.92;;;0.80;;
52386;SDS011;38317;53.084;6.960;2023-08-08T09:07:50;4.45;;;0.63;;
52386;SDS011;38317;53.084;6.960;2023-08-08T09:10:16;2.58;;;0.47;;
52386;SDS011;38317;53.084;6.960;2023-08-08T09:12:43;3.17;;;0.50;;
52386;SDS011;38317;53.084;6.960;2023-08-08T09:15:09;3.03;;;0.55;;
52386;SDS011;38317;53.084;6.960;2023-08-08T09:17:39;3.95;;;0.50;;
52386;SDS011;38317;53.084;6.960;2023-08-08T09:20:07;2.78;;;0.40;;
52386;SDS011;38317;53.084;6.960;2023-08-08T09:22:36;4.10;;;0.70;;
52386;SDS011;38317;53.084;6.960;2023-08-08T09:25:02;6.60;;;0.60;;
52386;SDS011;38317;53.084;6.960;2023-08-08T09:27:29;2.42;;;0.50;;
52386;SDS011;38317;53.084;6.960;2023-08-08T09:29:55;3.22;;;0.55;;
52386;SDS011;38317;53.084;6.960;2023-08-08T09:32:28;4.00;;;0.60;;
52386;SDS011;38317;53.084;6.960;2023-08-08T09:34:56;4.22;;;0.93;;
52386;SDS011;38317;53.084;6.960;2023-08-08T09:37:22;3.92;;;0.50;;
52386;SDS011;38317;53.084;6.960;2023-08-08T09:39:58;4.88;;;0.43;;
52386;SDS011;38317;53.084;6.960;2023-08-08T09:42:26;3.15;;;0.60;;
52386;SDS011;38317;53.084;6.960;2023-08-08T09:44:52;6.97;;;0.73;;
52386;SDS011;38317;53.084;6.960;2023-08-08T09:47:20;3.75;;;0.70;;
52386;SDS011;38317;53.084;6.960;2023-08-08T09:49:47;3.95;;;0.55;;
52386;SDS011;38317;53.084;6.960;2023-08-08T09:52:13;3.85;;;0.47;;
52386;SDS011;38317;53.084;6.960;2023-08-08T09:54:40;2.22;;;0.50;;
52386;SDS011;38317;53.084;6.960;2023-08-08T09:57:07;3.08;;;0.52;;
52386;SDS011;38317;53.084;6.960;2023-08-08T09:59:33;6.18;;;1.00;;
52386;SDS011;38317;53.084;6.960;2023-08-08T10:02:00;2.22;;;0.40;;
52386;SDS011;38317;53.084;6.960;2023-08-08T10:04:26;2.47;;;0.50;;
52386;SDS011;38317;53.084;6.960;2023-08-08T10:06:53;3.38;;;0.50;;
52386;SDS011;38317;53.084;6.960;2023-08-08T10:09:19;3.25;;;0.45;;
52386;SDS011;38317;53.084;6.960;2023-08-08T10:11:45;3.08;;;0.98;;
52386;SDS011;38317;53.084;6.960;2023-08-08T10:14:12;5.80;;;0.75;;
52386;SDS011;38317;53.084;6.960;2023-08-08T10:16:41;2.83;;;0.57;;
52386;SDS011;38317;53.084;6.960;2023-08-08T10:19:09;4.20;;;0.50;;
52386;SDS011;38317;53.084;6.960;2023-08-08T10:21:36;2.65;;;0.60;;
52386;SDS011;38317;53.084;6.960;2023-08-08T10:24:06;3.17;;;0.40;;
52386;SDS011;38317;53.084;6.960;2023-08-08T10:26:34;2.75;;;0.50;;
52386;SDS011;38317;53.084;6.960;2023-08-08T10:29:19;4.90;;;0.60;;
52386;SDS011;38317;53.084;6.960;2023-08-08T10:31:52;5.25;;;0.60;;
52386;SDS011;38317;53.084;6.960;2023-08-08T10:34:26;4.68;;;0.82;;
52386;SDS011;38317;53.084;6.960;2023-08-08T10:37:03;4.82;;;0.55;;
52386;SDS011;38317;53.084;6.960;2023-08-08T10:39:52;5.97;;;0.90;;
52386;SDS011;38317;53.084;6.960;2023-08-08T10:42:23;4.75;;;0.70;;
52386;SDS011;38317;53.084;6.960;2023-08-08T10:47:30;3.25;;;0.60;;
52386;SDS011;38317;53.084;6.960;2023-08-08T10:50:04;3.70;;;0.50;;
52386;SDS011;38317;53.084;6.960;2023-08-08T10:55:21;4.18;;;0.60;;
52386;SDS011;38317;53.084;6.960;2023-08-08T10:57:54;4.25;;;0.75;;
52386;SDS011;38317;53.084;6.960;2023-08-08T11:00:24;3.08;;;0.90;;
52386;SDS011;38317;53.084;6.960;2023-08-08T11:02:53;3.78;;;0.68;;
52386;SDS011;38317;53.084;6.960;2023-08-08T11:05:21;4.20;;;0.55;;
52386;SDS011;38317;53.084;6.960;2023-08-08T11:07:47;3.47;;;0.65;;
52386;SDS011;38317;53.084;6.960;2023-08-08T11:10:13;5.53;;;0.75;;
52386;SDS011;38317;53.084;6.960;2023-08-08T11:12:39;4.05;;;0.60;;
52386;SDS011;38317;53.084;6.960;2023-08-08T11:15:05;7.35;;;0.70;;
52386;SDS011;38317;53.084;6.960;2023-08-08T11:17:31;3.50;;;0.60;;
52386;SDS011;38317;53.084;6.960;2023-08-08T11:19:57;3.00;;;0.52;;
52386;SDS011;38317;53.084;6.960;2023-08-08T11:22:23;7.40;;;1.30;;
52386;SDS011;38317;53.084;6.960;2023-08-08T11:24:49;3.58;;;0.68;;
52386;SDS011;38317;53.084;6.960;2023-08-08T11:27:16;2.92;;;0.60;;
52386;SDS011;38317;53.084;6.960;2023-08-08T11:29:51;3.10;;;0.40;;
52386;SDS011;38317;53.084;6.960;2023-08-08T11:32:17;2.33;;;0.40;;
52386;SDS011;38317;53.084;6.960;2023-08-08T11:34:43;3.10;;;0.50;;
52386;SDS011;38317;53.084;6.960;2023-08-08T11:37:14;2.90;;;0.40;;
52386;SDS011;38317;53.084;6.960;2023-08-08T11:39:40;2.05;;;0.40;;
52386;SDS011;38317;53.084;6.960;2023-08-08T11:42:07;2.58;;;0.50;;
52386;SDS011;38317;53.084;6.960;2023-08-08T11:44:32;4.15;;;0.50;;
52386;SDS011;38317;53.084;6.960;2023-08-08T11:47:02;1.52;;;0.43;;
52386;SDS011;38317;53.084;6.960;2023-08-08T11:49:28;4.95;;;0.47;;
52386;SDS011;38317;53.084;6.960;2023-08-08T11:51:54;4.28;;;0.95;;
52386;SDS011;38317;53.084;6.960;2023-08-08T11:54:27;3.80;;;0.60;;
52386;SDS011;38317;53.084;6.960;2023-08-08T11:56:53;3.33;;;0.50;;
52386;SDS011;38317;53.084;6.960;2023-08-08T11:59:19;5.20;;;0.60;;
52386;SDS011;38317;53.084;6.960;2023-08-08T12:01:45;4.22;;;0.73;;
52386;SDS011;38317;53.084;6.960;2023-08-08T12:04:11;3.90;;;0.65;;
52386;SDS011;38317;53.084;6.960;2023-08-08T12:06:37;9.00;;;0.55;;
52386;SDS011;38317;53.084;6.960;2023-08-08T12:09:10;3.87;;;0.50;;
52386;SDS011;38317;53.084;6.960;2023-08-08T12:11:39;5.28;;;0.50;;
52386;SDS011;38317;53.084;6.960;2023-08-08T12:14:07;6.63;;;0.93;;
52386;SDS011;38317;53.084;6.960;2023-08-08T12:16:36;4.65;;;0.57;;
52386;SDS011;38317;53.084;6.960;2023-08-08T12:19:04;2.60;;;0.52;;
52386;SDS011;38317;53.084;6.960;2023-08-08T12:21:34;2.08;;;0.43;;
52386;SDS011;38317;53.084;6.960;2023-08-08T12:24:00;2.35;;;0.40;;
52386;SDS011;38317;53.084;6.960;2023-08-08T12:26:25;3.63;;;0.50;;
52386;SDS011;38317;53.084;6.960;2023-08-08T12:28:51;2.65;;;0.30;;
52386;SDS011;38317;53.084;6.960;2023-08-08T12:31:19;2.30;;;0.50;;
52386;SDS011;38317;53.084;6.960;2023-08-08T12:33:45;8.30;;;0.60;;
52386;SDS011;38317;53.084;6.960;2023-08-08T12:36:13;2.17;;;0.30;;
52386;SDS011;38317;53.084;6.960;2023-08-08T12:38:39;3.05;;;0.40;;
52386;SDS011;38317;53.084;6.960;2023-08-08T12:41:05;2.35;;;0.43;;
52386;SDS011;38317;53.084;6.960;2023-08-08T12:43:31;1.80;;;0.50;;
52386;SDS011;38317;53.084;6.960;2023-08-08T12:45:59;3.80;;;0.57;;
52386;SDS011;38317;53.084;6.960;2023-08-08T12:48:25;2.97;;;0.40;;
52386;SDS011;38317;53.084;6.960;2023-08-08T12:50:51;3.70;;;0.60;;
52386;SDS011;38317;53.084;6.960;2023-08-08T12:53:16;6.15;;;0.50;;
52386;SDS011;38317;53.084;6.960;2023-08-08T12:55:42;4.57;;;0.50;;
52386;SDS011;38317;53.084;6.960;2023-08-08T12:58:09;3.53;;;0.30;;
52386;SDS011;38317;53.084;6.960;2023-08-08T13:00:34;2.83;;;0.50;;
52386;SDS011;38317;53.084;6.960;2023-08-08T13:03:01;2.53;;;0.43;;
52386;SDS011;38317;53.084;6.960;2023-08-08T13:05:27;2.88;;;0.47;;
52386;SDS011;38317;53.084;6.960;2023-08-08T13:07:53;3.70;;;0.45;;
52386;SDS011;38317;53.084;6.960;2023-08-08T13:10:18;2.10;;;0.40;;
52386;SDS011;38317;53.084;6.960;2023-08-08T13:12:45;6.13;;;0.50;;
52386;SDS011;38317;53.084;6.960;2023-08-08T13:15:12;9.35;;;0.50;;
52386;SDS011;38317;53.084;6.960;2023-08-08T13:17:38;3.42;;;0.52;;
52386;SDS011;38317;53.084;6.960;2023-08-08T13:20:04;5.45;;;0.50;;
52386;SDS011;38317;53.084;6.960;2023-08-08T13:22:30;7.75;;;0.80;;
52386;SDS011;38317;53.084;6.960;2023-08-08T13:24:55;1.98;;;0.32;;
52386;SDS011;38317;53.084;6.960;2023-08-08T13:27:21;6.35;;;0.70;;
52386;SDS011;38317;53.084;6.960;2023-08-08T13:29:47;7.15;;;0.88;;
52386;SDS011;38317;53.084;6.960;2023-08-08T13:32:13;4.65;;;0.65;;
52386;SDS011;38317;53.084;6.960;2023-08-08T13:34:39;3.63;;;0.60;;
52386;SDS011;38317;53.084;6.960;2023-08-08T13:37:04;4.03;;;0.50;;
52386;SDS011;38317;53.084;6.960;2023-08-08T13:39:30;4.35;;;0.40;;
52386;SDS011;38317;53.084;6.960;2023-08-08T13:41:56;2.95;;;0.43;;
52386;SDS011;38317;53.084;6.960;2023-08-08T13:44:22;2.70;;;0.68;;
52386;SDS011;38317;53.084;6.960;2023-08-08T13:46:48;3.15;;;0.50;;
52386;SDS011;38317;53.084;6.960;2023-08-08T13:49:13;1.85;;;0.30;;
52386;SDS011;38317;53.084;6.960;2023-08-08T13:51:39;3.53;;;0.40;;
52386;SDS011;38317;53.084;6.960;2023-08-08T13:54:05;3.70;;;0.30;;
52386;SDS011;38317;53.084;6.960;2023-08-08T13:56:31;3.17;;;0.40;;
52386;SDS011;38317;53.084;6.960;2023-08-08T13:58:57;3.60;;;0.40;;
52386;SDS011;38317;53.084;6.960;2023-08-08T14:01:22;4.05;;;0.63;;
52386;SDS011;38317;53.084;6.960;2023-08-08T14:03:48;4.57;;;0.85;;
52386;SDS011;38317;53.084;6.960;2023-08-08T14:06:14;3.45;;;0.38;;
52386;SDS011;38317;53.084;6.960;2023-08-08T14:08:40;5.22;;;0.40;;
52386;SDS011;38317;53.084;6.960;2023-08-08T14:11:05;5.45;;;0.52;;
52386;SDS011;38317;53.084;6.960;2023-08-08T14:13:31;5.25;;;0.40;;
52386;SDS011;38317;53.084;6.960;2023-08-08T14:15:58;4.10;;;0.45;;
52386;SDS011;38317;53.084;6.960;2023-08-08T14:18:23;6.35;;;0.65;;
52386;SDS011;38317;53.084;6.960;2023-08-08T14:20:49;4.57;;;0.50;;
52386;SDS011;38317;53.084;6.960;2023-08-08T14:23:15;6.45;;;0.82;;
52386;SDS011;38317;53.084;6.960;2023-08-08T14:25:41;4.53;;;0.45;;
52386;SDS011;38317;53.084;6.960;2023-08-08T14:28:07;5.80;;;0.60;;
52386;SDS011;38317;53.084;6.960;2023-08-08T14:30:33;3.92;;;0.50;;
52386;SDS011;38317;53.084;6.960;2023-08-08T14:32:58;4.20;;;0.80;;
52386;SDS011;38317;53.084;6.960;2023-08-08T14:35:24;3.25;;;0.50;;
52386;SDS011;38317;53.084;6.960;2023-08-08T14:37:50;3.40;;;0.80;;
52386;SDS011;38317;53.084;6.960;2023-08-08T14:40:16;4.97;;;0.65;;
52386;SDS011;38317;53.084;6.960;2023-08-08T14:42:41;4.07;;;0.70;;
52386;SDS011;38317;53.084;6.960;2023-08-08T14:45:07;4.15;;;0.70;;
52386;SDS011;38317;53.084;6.960;2023-08-08T14:47:33;3.72;;;0.55;;
52386;SDS011;38317;53.084;6.960;2023-08-08T14:49:59;4.75;;;0.63;;
52386;SDS011;38317;53.084;6.960;2023-08-08T14:52:25;2.92;;;0.57;;